Hovedside
METAR-TAF:

METAR-TAF

Lufthavner :

Växjö lufthavn

Växjö, Sverige

breddegrad: 56-51N, lengdegrad: 014-50E, høyde over havet: 199 m

Gjeldene værobservasjon

Denne rapporten ble laget for 38 minutter siden, klokken 11:20 UTC
Vind 10 kt fra Vest
Temperatur 5°C
Luftfuktighet 65%
Trykk 1008 hPa
Sikt 10 km eller mer
ingen skyer under 1500 m og ingen bygeskyer

METAR: ESMX 241120Z 27010KT CAVOK 05/M01 Q1008

Tid: 12:58 (11:58 UTC)

Varsel

Denne rapporten ble laget for 28 minutter siden, klokken 11:30 UTC
Varsel gyldig fra 24. klokken 12 UTC til 24. klokken 21 UTC
Vind 10 kt fra Vest
Sikt 10 km eller mer
ingen skyer under 1500 m og ingen bygeskyer
Blir
fra 24. klokken 15 UTC til 24. klokken 17 UTC
Vind 5 kt fra Sør-sørvest

TAF: ESMX 241130Z 2412/2421 27010KT CAVOK BECMG 2415/2417 21005KT

Værobservasjoner og værvarsel for over 4000 flyplasser (METAR- og TAF-rapporter).

Tilgjengelige stasjoner er representert av de røde og gule prikkene på kartet.

Hold musepekeren over prikken for å se navnet på stasjonen.

Klikk så for å se værobservasjoner og -varsler.

For å forandre kartet kan du klikke på den grønne knappen med svart kryss for å zoome inn, på den grønne knappen med strek for å zoome ut, eller på de grønne pilene for å se tilstøtende kart.


METAR-TAF: